Crystal Symphony — C6MY5 — position and weather

sailwx.info

Track history (hours):
 
Tides and Currents Weather Stations Pressure Air Temp Water Temp Dewpoint Dewpoint Depression Visibility Wind Speed Wind Dir Waves Ship Positions

Crystal Symphony

Operator: Crystal Cruises

Last reported at 2018-May-19 03:03 UTC. Time now 2018-May-24 09:30 UTC.
Position N 33°35' W 118°24'.

Length 238 m; draft 8 m.

Type: Passenger vessel. MMSI: 309168000.

Date/timePositionNaut miles runAvg speedWind from/ knotsBaromVisibWave heightAir tempDewpointWater temp
2018-May-19 03:03N 33°35' W 118°24'112.1
2018-May-19 03:00N 33°35' W 118°24'611.2
2018-May-19 02:30N 33°35' W 118°17'611.6
2018-May-19 02:00N 33°41' W 118°14'4 8.3
2018-May-19 01:30N 33°44' W 118°17'1 1.2
2018-May-19 00:59N 33°45' W 118°17'0 0.0
2018-May-19 00:29N 33°45' W 118°17'0 0.0
2018-May-18 23:58N 33°45' W 118°17'0 0.0
2018-May-18 23:28N 33°45' W 118°17'0 0.0
2018-May-18 22:58N 33°45' W 118°17'0 0.0
2018-May-18 22:28N 33°45' W 118°17'0 0.0
2018-May-18 21:58N 33°45' W 118°17'0 0.0
2018-May-18 21:30N 33°45' W 118°17'0 0.0
2018-May-18 21:00N 33°45' W 118°17'0 0.0
2018-May-18 20:30N 33°45' W 118°17'0 0.0
2018-May-18 20:00N 33°45' W 118°17'0 0.0
2018-May-18 19:30N 33°45' W 118°17'0 0.0
2018-May-18 18:56N 33°45' W 118°17'0 0.0
2018-May-18 18:29N 33°45' W 118°17'0 0.0
2018-May-18 17:59N 33°45' W 118°17'0 0.0
2018-May-18 17:29N 33°45' W 118°17'0 0.0
2018-May-18 16:58N 33°45' W 118°17'0 0.0
2018-May-18 16:28N 33°45' W 118°17'0 0.0
2018-May-18 15:58N 33°45' W 118°17'0 0.0
2018-May-18 15:28N 33°45' W 118°17'0 0.0
2018-May-18 14:58N 33°45' W 118°17'0 0.0
2018-May-18 14:30N 33°45' W 118°17'0 0.0
2018-May-18 14:00N 33°45' W 118°17'0 0.0
2018-May-18 13:30N 33°45' W 118°17'0 0.0
2018-May-18 13:00N 33°45' W 118°17'0 0.0
2018-May-18 12:30N 33°45' W 118°17'0 0.0
2018-May-18 12:00N 33°45' W 118°17'1 1.5
2018-May-18 11:30N 33°44' W 118°17'4 7.2
2018-May-18 11:00N 33°41' W 118°14'2612.2
2018-May-18 08:54N 33°18' W 118°01'614.9
2018-May-18 08:29N 33°12' W 117°59'713.9
2018-May-18 08:00N 33°06' W 117°55'816.8
2018-May-18 07:30N 32°58' W 117°51'916.8
2018-May-18 06:58N 32°49' W 117°50'816.5
2018-May-18 06:29N 32°41' W 117°49'1711.7
2018-May-18 05:01N 32°25' W 117°44'011.3
2018-May-18 04:58N 32°25' W 117°43'510.6
2018-May-18 04:30N 32°27' W 117°38'510.4
2018-May-18 04:00N 32°30' W 117°33'612.1
2018-May-18 03:30N 32°35' W 117°29'  
2018-May-13 23:12N 20°36' W 105°35'519.2
2018-May-13 22:58N 20°37' W 105°30'919.0
2018-May-13 22:29N 20°38' W 105°21'612.1
2018-May-13 21:59N 20°39' W 105°15'0 0.1
2018-May-13 21:04N 20°39' W 105°14'0 0.0
2018-May-13 21:00N 20°39' W 105°14'0 0.0
2018-May-13 20:25N 20°39' W 105°14'0 0.0
2018-May-13 18:42N 20°39' W 105°14'0 0.0
2018-May-13 18:29N 20°39' W 105°14'0 0.0
2018-May-13 17:11N 20°39' W 105°14'0 0.0
2018-May-13 16:58N 20°39' W 105°14'0 0.0
2018-May-13 16:27N 20°39' W 105°14'0 0.0
2018-May-13 13:25N 20°39' W 105°14'0 0.0
2018-May-13 12:53N 20°39' W 105°14'0 0.0
2018-May-13 12:30N 20°39' W 105°14'2 3.6
2018-May-13 12:00N 20°39' W 105°16'816.1
2018-May-13 11:30N 20°37' W 105°25'1019.0
2018-May-13 10:59N 20°34' W 105°35'  
Track history (hours):
 
Tides and Currents Weather Stations Pressure Air Temp Water Temp Dewpoint Dewpoint Depression Visibility Wind Speed Wind Dir Waves Ship Positions

Crystal Symphony

Operator: Crystal Cruises

Last reported at 2018-May-19 03:03 UTC. Time now 2018-May-24 09:30 UTC.
Position N 33°35' W 118°24'.

Length 238 m; draft 8 m.

Type: Passenger vessel. MMSI: 309168000.

Date/timePositionNaut miles runAvg speedWind from/ knotsBaromVisibWave heightAir tempDewpointWater temp
2018-May-19 03:03N 33°35' W 118°24'112.1
2018-May-19 03:00N 33°35' W 118°24'611.2
2018-May-19 02:30N 33°35' W 118°17'611.6
2018-May-19 02:00N 33°41' W 118°14'4 8.3
2018-May-19 01:30N 33°44' W 118°17'1 1.2
2018-May-19 00:59N 33°45' W 118°17'0 0.0
2018-May-19 00:29N 33°45' W 118°17'0 0.0
2018-May-18 23:58N 33°45' W 118°17'0 0.0
2018-May-18 23:28N 33°45' W 118°17'0 0.0
2018-May-18 22:58N 33°45' W 118°17'0 0.0
2018-May-18 22:28N 33°45' W 118°17'0 0.0
2018-May-18 21:58N 33°45' W 118°17'0 0.0
2018-May-18 21:30N 33°45' W 118°17'0 0.0
2018-May-18 21:00N 33°45' W 118°17'0 0.0
2018-May-18 20:30N 33°45' W 118°17'0 0.0
2018-May-18 20:00N 33°45' W 118°17'0 0.0
2018-May-18 19:30N 33°45' W 118°17'0 0.0
2018-May-18 18:56N 33°45' W 118°17'0 0.0
2018-May-18 18:29N 33°45' W 118°17'0 0.0
2018-May-18 17:59N 33°45' W 118°17'0 0.0
2018-May-18 17:29N 33°45' W 118°17'0 0.0
2018-May-18 16:58N 33°45' W 118°17'0 0.0
2018-May-18 16:28N 33°45' W 118°17'0 0.0
2018-May-18 15:58N 33°45' W 118°17'0 0.0
2018-May-18 15:28N 33°45' W 118°17'0 0.0
2018-May-18 14:58N 33°45' W 118°17'0 0.0
2018-May-18 14:30N 33°45' W 118°17'0 0.0
2018-May-18 14:00N 33°45' W 118°17'0 0.0
2018-May-18 13:30N 33°45' W 118°17'0 0.0
2018-May-18 13:00N 33°45' W 118°17'0 0.0
2018-May-18 12:30N 33°45' W 118°17'0 0.0
2018-May-18 12:00N 33°45' W 118°17'1 1.5
2018-May-18 11:30N 33°44' W 118°17'4 7.2
2018-May-18 11:00N 33°41' W 118°14'2612.2
2018-May-18 08:54N 33°18' W 118°01'614.9
2018-May-18 08:29N 33°12' W 117°59'713.9
2018-May-18 08:00N 33°06' W 117°55'816.8
2018-May-18 07:30N 32°58' W 117°51'916.8
2018-May-18 06:58N 32°49' W 117°50'816.5
2018-May-18 06:29N 32°41' W 117°49'1711.7
2018-May-18 05:01N 32°25' W 117°44'011.3
2018-May-18 04:58N 32°25' W 117°43'510.6
2018-May-18 04:30N 32°27' W 117°38'510.4
2018-May-18 04:00N 32°30' W 117°33'612.1
2018-May-18 03:30N 32°35' W 117°29'  
2018-May-13 23:12N 20°36' W 105°35'519.2
2018-May-13 22:58N 20°37' W 105°30'919.0
2018-May-13 22:29N 20°38' W 105°21'612.1
2018-May-13 21:59N 20°39' W 105°15'0 0.1
2018-May-13 21:04N 20°39' W 105°14'0 0.0
2018-May-13 21:00N 20°39' W 105°14'0 0.0
2018-May-13 20:25N 20°39' W 105°14'0 0.0
2018-May-13 18:42N 20°39' W 105°14'0 0.0
2018-May-13 18:29N 20°39' W 105°14'0 0.0
2018-May-13 17:11N 20°39' W 105°14'0 0.0
2018-May-13 16:58N 20°39' W 105°14'0 0.0
2018-May-13 16:27N 20°39' W 105°14'0 0.0
2018-May-13 13:25N 20°39' W 105°14'0 0.0
2018-May-13 12:53N 20°39' W 105°14'0 0.0
2018-May-13 12:30N 20°39' W 105°14'2 3.6
2018-May-13 12:00N 20°39' W 105°16'816.1
2018-May-13 11:30N 20°37' W 105°25'1019.0
2018-May-13 10:59N 20°34' W 105°35'  

Dump ship's entire track history